createdAt,value
2022-12-05T00:01:42.289Z,72.90
2022-12-05T00:04:15.111Z,75.30
2022-12-05T00:06:43.526Z,74.55
2022-12-05T00:09:13.448Z,76.53
2022-12-05T00:11:42.985Z,72.95
2022-12-05T00:14:11.575Z,75.57
2022-12-05T00:16:41.896Z,65.03
2022-12-05T00:19:11.737Z,68.90
2022-12-05T00:21:39.598Z,69.75
2022-12-05T00:24:09.072Z,71.05
2022-12-05T00:26:36.740Z,62.90
2022-12-05T00:29:04.870Z,70.97
2022-12-05T00:31:32.451Z,64.88
2022-12-05T00:34:01.732Z,65.57
2022-12-05T00:36:32.350Z,66.20
2022-12-05T00:39:02.070Z,66.55
2022-12-05T00:41:30.379Z,72.05
2022-12-05T00:44:00.357Z,74.22
2022-12-05T00:46:30.390Z,65.88
2022-12-05T00:48:59.345Z,65.35
2022-12-05T00:51:29.994Z,72.40
2022-12-05T00:54:03.004Z,65.03
2022-12-05T00:56:32.112Z,78.93
2022-12-05T00:59:00.969Z,72.70
2022-12-05T01:01:40.360Z,71.43
2022-12-05T01:04:12.069Z,73.43
2022-12-05T01:06:40.437Z,73.00
2022-12-05T01:09:08.885Z,74.28
2022-12-05T01:11:41.289Z,78.22
2022-12-05T01:14:12.125Z,73.72
2022-12-05T01:16:41.348Z,84.70
2022-12-05T01:19:13.012Z,76.55
2022-12-05T01:21:41.285Z,81.68
2022-12-05T01:24:10.350Z,71.68
2022-12-05T01:26:38.166Z,87.97
2022-12-05T01:29:05.687Z,80.63
2022-12-05T01:31:36.349Z,81.97
2022-12-05T01:34:06.576Z,81.85
2022-12-05T01:36:34.556Z,78.22
2022-12-05T01:39:02.260Z,81.00
2022-12-05T01:41:36.298Z,76.88
2022-12-05T01:44:13.035Z,77.57
2022-12-05T01:46:51.780Z,73.38
2022-12-05T01:49:31.843Z,71.95
2022-12-05T01:52:05.621Z,74.00
2022-12-05T01:54:34.843Z,73.45
2022-12-05T01:57:11.705Z,73.65
2022-12-05T01:59:46.500Z,75.00
2022-12-05T02:02:14.210Z,71.75
2022-12-05T02:04:50.348Z,76.75
2022-12-05T02:07:19.246Z,75.78
2022-12-05T02:09:48.715Z,71.55
2022-12-05T02:12:17.875Z,72.55
2022-12-05T02:14:51.444Z,74.72
2022-12-05T02:17:43.785Z,73.30
2022-12-05T02:20:20.524Z,76.13
2022-12-05T02:23:23.271Z,74.03
2022-12-05T02:26:18.142Z,67.68
2022-12-05T02:29:19.524Z,66.72
2022-12-05T02:32:09.481Z,71.32
2022-12-05T02:35:08.989Z,57.47
2022-12-05T02:38:02.362Z,68.75
2022-12-05T02:40:39.355Z,60.03
2022-12-05T02:43:19.420Z,69.88
2022-12-05T02:45:52.091Z,61.95
2022-12-05T02:48:21.057Z,59.55
2022-12-05T02:50:50.572Z,63.28
2022-12-05T02:53:19.973Z,65.18
2022-12-05T02:55:48.128Z,62.55
2022-12-05T03:00:49.278Z,50.30
2022-12-05T03:03:22.630Z,50.22
2022-12-05T03:06:07.675Z,60.45
2022-12-05T03:08:42.985Z,55.05
2022-12-05T03:11:10.964Z,49.88
2022-12-05T03:13:58.058Z,45.38
2022-12-05T03:16:34.026Z,46.45
2022-12-05T03:19:20.077Z,56.58
2022-12-05T03:21:56.476Z,55.10
2022-12-05T03:24:24.481Z,57.30
2022-12-05T03:27:04.636Z,50.33
2022-12-05T03:29:39.384Z,55.38
2022-12-05T03:32:31.486Z,50.60
2022-12-05T03:35:11.527Z,50.60
2022-12-05T03:37:45.705Z,50.47
2022-12-05T03:40:26.689Z,56.75
2022-12-05T03:43:27.411Z,53.25
2022-12-05T03:46:10.041Z,55.15
2022-12-05T03:48:58.884Z,46.17
2022-12-05T03:51:46.684Z,50.03
2022-12-05T03:56:51.197Z,49.47
2022-12-05T03:59:30.851Z,54.35
2022-12-05T04:02:01.582Z,50.50
2022-12-05T04:04:39.846Z,50.03
2022-12-05T04:07:09.481Z,53.13
2022-12-05T04:09:45.785Z,56.60
2022-12-05T04:12:18.901Z,52.90
2022-12-05T04:14:54.977Z,50.75
2022-12-05T04:17:46.974Z,52.05
2022-12-05T04:20:51.205Z,51.45
2022-12-05T04:23:18.910Z,52.60
2022-12-05T04:26:19.265Z,53.80
2022-12-05T04:28:55.834Z,53.40
2022-12-05T04:31:26.882Z,53.45
2022-12-05T04:34:02.674Z,58.75
2022-12-05T04:36:55.851Z,52.45
2022-12-05T04:39:33.231Z,56.75
2022-12-05T04:42:03.736Z,47.60
2022-12-05T04:44:40.229Z,50.50
2022-12-05T04:47:10.551Z,52.88
2022-12-05T04:49:41.121Z,51.28
2022-12-05T04:52:11.733Z,49.00
2022-12-05T04:54:42.696Z,56.88
2022-12-05T04:57:37.120Z,48.65
2022-12-05T05:00:05.770Z,53.75
2022-12-05T05:02:40.625Z,46.35
2022-12-05T05:05:14.118Z,45.63
2022-12-05T05:07:47.299Z,43.25
2022-12-05T05:10:25.589Z,43.55
2022-12-05T05:12:53.328Z,41.38
2022-12-05T05:15:20.761Z,44.95
2022-12-05T05:17:48.238Z,39.33
2022-12-05T05:20:24.459Z,37.28
2022-12-05T05:22:53.130Z,41.05
2022-12-05T05:25:21.126Z,34.45
2022-12-05T05:27:53.657Z,37.85
2022-12-05T05:30:22.890Z,32.50
2022-12-05T05:32:50.340Z,34.40
2022-12-05T05:35:18.040Z,33.58
2022-12-05T05:37:45.575Z,35.53
2022-12-05T05:40:14.033Z,39.17
2022-12-05T05:42:46.890Z,33.20
2022-12-05T05:45:15.575Z,38.85
2022-12-05T05:47:43.987Z,38.85
2022-12-05T05:50:16.292Z,30.55
2022-12-05T05:52:45.473Z,37.40
2022-12-05T05:55:13.129Z,33.08
2022-12-05T05:57:40.598Z,37.22
2022-12-05T06:00:08.796Z,31.83
2022-12-05T06:02:36.621Z,37.47
2022-12-05T06:05:05.530Z,39.20
2022-12-05T06:07:33.087Z,32.83
2022-12-05T06:10:01.166Z,35.72
2022-12-05T06:14:56.497Z,38.03
2022-12-05T06:17:23.924Z,35.45
2022-12-05T06:19:51.480Z,42.33
2022-12-05T06:22:18.920Z,37.25
2022-12-05T06:24:46.389Z,38.80
2022-12-05T06:27:13.966Z,31.90
2022-12-05T06:29:41.520Z,37.22
2022-12-05T06:32:09.264Z,41.72
2022-12-05T06:34:37.054Z,35.80
2022-12-05T06:37:04.606Z,44.58
2022-12-05T06:39:32.491Z,38.72
2022-12-05T06:42:00.052Z,36.95
2022-12-05T06:44:28.717Z,36.40
2022-12-05T06:46:56.711Z,40.15
2022-12-05T06:49:37.473Z,34.10
2022-12-05T06:52:05.538Z,29.13
2022-12-05T06:54:33.165Z,32.78
2022-12-05T06:57:00.776Z,34.60
2022-12-05T06:59:28.244Z,29.58
2022-12-05T07:01:55.902Z,33.05
2022-12-05T07:04:24.548Z,28.52
2022-12-05T07:06:54.081Z,28.98
2022-12-05T07:09:44.229Z,32.05
2022-12-05T07:12:13.954Z,25.38
2022-12-05T07:14:50.176Z,24.38
2022-12-05T07:17:20.645Z,34.55
2022-12-05T07:19:52.740Z,25.65
2022-12-05T07:22:22.340Z,27.75
2022-12-05T07:24:53.181Z,27.77
2022-12-05T07:27:26.790Z,29.92
2022-12-05T07:29:55.289Z,23.80
2022-12-05T07:32:22.876Z,28.83
2022-12-05T07:34:55.054Z,26.35
2022-12-05T07:37:23.955Z,27.05
2022-12-05T07:39:55.464Z,24.42
2022-12-05T07:42:23.209Z,26.40
2022-12-05T07:44:50.705Z,26.48
2022-12-05T07:47:18.256Z,29.02
2022-12-05T07:49:45.800Z,26.77
2022-12-05T07:52:13.287Z,28.38
2022-12-05T07:54:40.801Z,29.23
2022-12-05T07:57:08.241Z,30.83
2022-12-05T07:59:35.645Z,32.50
2022-12-05T08:02:03.257Z,29.90
2022-12-05T08:04:31.087Z,32.45
2022-12-05T08:06:58.585Z,30.73
2022-12-05T08:09:26.143Z,34.67
2022-12-05T08:11:56.165Z,32.33
2022-12-05T08:14:23.716Z,29.65
2022-12-05T08:16:51.424Z,32.15
2022-12-05T08:19:19.316Z,29.73
2022-12-05T08:21:47.026Z,29.77
2022-12-05T08:24:17.219Z,32.75
2022-12-05T08:26:44.726Z,30.23
2022-12-05T08:29:14.286Z,27.00
2022-12-05T08:31:49.041Z,33.58
2022-12-05T08:34:18.880Z,32.55
2022-12-05T08:36:46.736Z,31.08
2022-12-05T08:39:17.763Z,32.47
2022-12-05T08:41:46.911Z,35.03
2022-12-05T08:44:17.048Z,34.72
2022-12-05T08:46:47.624Z,28.83
2022-12-05T08:49:15.922Z,31.05
2022-12-05T08:51:44.161Z,31.25
2022-12-05T08:54:12.367Z,30.20
2022-12-05T08:59:07.758Z,29.10
2022-12-05T09:04:07.250Z,32.75
2022-12-05T09:06:36.039Z,32.72
2022-12-05T09:09:07.149Z,37.13
2022-12-05T09:11:37.670Z,31.30
2022-12-05T09:14:05.612Z,39.75
2022-12-05T09:16:40.604Z,34.22
2022-12-05T09:19:21.907Z,30.05
2022-12-05T09:22:00.805Z,33.00
2022-12-05T09:24:33.645Z,28.10
2022-12-05T09:27:08.721Z,30.17
2022-12-05T09:29:41.301Z,31.38
2022-12-05T09:32:09.930Z,30.80
2022-12-05T09:34:38.136Z,31.08
2022-12-05T09:39:55.701Z,29.73
2022-12-05T09:42:55.111Z,34.03
2022-12-05T09:45:46.280Z,29.95
2022-12-05T09:48:21.821Z,30.30
2022-12-05T09:51:03.975Z,25.33
2022-12-05T09:53:37.749Z,30.45
2022-12-05T09:56:22.726Z,34.53
2022-12-05T09:58:55.492Z,29.17
2022-12-05T10:01:41.998Z,29.95
2022-12-05T10:04:30.629Z,29.50
2022-12-05T10:07:34.633Z,22.48
2022-12-05T10:10:43.188Z,27.42
2022-12-05T10:13:26.095Z,27.50
2022-12-05T10:15:57.859Z,31.98
2022-12-05T10:18:44.157Z,30.20
2022-12-05T10:21:18.007Z,29.73
2022-12-05T10:23:59.593Z,27.92
2022-12-05T10:26:35.938Z,28.17
2022-12-05T10:29:19.814Z,25.02
2022-12-05T10:31:49.643Z,34.33
2022-12-05T10:34:42.127Z,27.65
2022-12-05T10:37:25.008Z,26.95
2022-12-05T10:39:57.650Z,29.92
2022-12-05T10:42:37.415Z,29.15
2022-12-05T10:45:24.496Z,28.95
2022-12-05T10:47:59.462Z,32.53
2022-12-05T10:50:51.541Z,26.77
2022-12-05T10:53:28.843Z,31.50
2022-12-05T10:56:28.907Z,31.27
2022-12-05T11:01:25.371Z,26.23
2022-12-05T11:03:59.129Z,27.38
2022-12-05T11:06:29.712Z,32.53
2022-12-05T11:09:05.581Z,23.27
2022-12-05T11:11:35.102Z,27.88
2022-12-05T11:14:05.167Z,23.55
2022-12-05T11:16:40.255Z,24.58
2022-12-05T11:19:22.751Z,26.83
2022-12-05T11:21:51.943Z,27.33
2022-12-05T11:24:31.520Z,27.83
2022-12-05T11:27:18.742Z,24.20
2022-12-05T11:29:56.731Z,21.92
2022-12-05T11:32:27.481Z,21.55
2022-12-05T11:35:13.204Z,21.65
2022-12-05T11:37:52.085Z,25.73
2022-12-05T11:40:52.886Z,28.05
2022-12-05T11:43:55.799Z,25.45
2022-12-05T11:46:46.098Z,26.85
2022-12-05T11:49:19.651Z,27.95
2022-12-05T11:52:42.534Z,31.17
2022-12-05T11:55:10.016Z,27.13
2022-12-05T12:00:24.796Z,21.23
2022-12-05T12:03:18.869Z,28.73
2022-12-05T12:06:09.038Z,31.05
2022-12-05T12:08:56.485Z,21.98
2022-12-05T12:11:51.767Z,22.17
2022-12-05T12:14:53.492Z,23.15
2022-12-05T12:18:05.075Z,26.30
2022-12-05T12:20:46.701Z,25.38
2022-12-05T12:23:44.401Z,24.73
2022-12-05T12:29:03.920Z,27.90
2022-12-05T12:31:43.746Z,28.08
2022-12-05T12:35:05.695Z,25.45
2022-12-05T12:37:55.295Z,24.45
2022-12-05T12:40:45.421Z,25.55
2022-12-05T12:43:53.120Z,25.63
2022-12-05T12:46:42.570Z,24.90
2022-12-05T12:49:31.141Z,24.80
2022-12-05T12:52:13.476Z,25.13
2022-12-05T12:55:05.497Z,26.45
2022-12-05T12:57:49.809Z,25.23
2022-12-05T13:01:03.062Z,30.13
2022-12-05T13:03:43.456Z,26.88
2022-12-05T13:06:39.335Z,23.42
2022-12-05T13:09:18.261Z,22.25
2022-12-05T13:11:48.971Z,25.67
2022-12-05T13:14:20.726Z,23.65
2022-12-05T13:16:50.981Z,22.70
2022-12-05T13:19:52.452Z,20.58
2022-12-05T13:22:25.930Z,27.88
2022-12-05T13:24:55.144Z,19.92
2022-12-05T13:27:28.076Z,26.00
2022-12-05T13:30:02.282Z,23.10
2022-12-05T13:32:37.026Z,29.33
2022-12-05T13:35:07.567Z,24.30
2022-12-05T13:37:54.544Z,23.55
2022-12-05T13:40:45.790Z,27.00
2022-12-05T13:43:17.392Z,24.42
2022-12-05T13:46:07.144Z,22.75
2022-12-05T13:48:39.976Z,19.73
2022-12-05T13:51:27.609Z,22.60
2022-12-05T13:54:25.514Z,14.38
2022-12-05T13:57:05.252Z,20.77
2022-12-05T14:00:00.668Z,17.27
2022-12-05T14:02:43.901Z,14.85
2022-12-05T14:05:35.809Z,16.77
2022-12-05T14:08:29.112Z,21.00
2022-12-05T14:10:56.610Z,15.82
2022-12-05T14:13:24.210Z,16.25
2022-12-05T14:15:54.591Z,18.45
2022-12-05T14:18:50.502Z,14.32
2022-12-05T14:21:24.730Z,18.40
2022-12-05T14:24:13.486Z,16.88
2022-12-05T14:27:07.406Z,13.63
2022-12-05T14:30:00.093Z,15.00
2022-12-05T14:32:44.132Z,12.85
2022-12-05T14:35:46.259Z,12.68
2022-12-05T14:38:31.596Z,14.07
2022-12-05T14:41:31.013Z,13.57
2022-12-05T14:44:01.588Z,16.75
2022-12-05T14:46:34.084Z,14.02
2022-12-05T14:49:37.976Z,12.60
2022-12-05T14:52:12.120Z,11.60
2022-12-05T14:54:43.550Z,13.63
2022-12-05T14:57:16.321Z,13.30
2022-12-05T14:59:51.360Z,12.95
2022-12-05T15:02:44.783Z,13.73
2022-12-05T15:05:24.663Z,14.00
2022-12-05T15:07:54.773Z,12.15
2022-12-05T15:10:35.493Z,15.55
2022-12-05T15:13:07.865Z,12.38
2022-12-05T15:15:47.689Z,13.25
2022-12-05T15:18:38.445Z,14.10
2022-12-05T15:21:26.647Z,14.85
2022-12-05T15:24:00.861Z,14.38
2022-12-05T15:26:48.508Z,11.77
2022-12-05T15:29:29.086Z,11.48
2022-12-05T15:32:06.006Z,10.68
2022-12-05T15:34:58.791Z,12.07
2022-12-05T15:37:51.689Z,11.00
2022-12-05T15:40:25.038Z,10.65
2022-12-05T15:42:55.630Z,10.35
2022-12-05T15:45:37.251Z,13.75
2022-12-05T15:48:08.067Z,9.38
2022-12-05T15:50:47.158Z,17.13
2022-12-05T15:53:36.738Z,12.82
2022-12-05T15:59:27.503Z,9.13
2022-12-05T16:02:03.690Z,16.85
2022-12-05T16:04:38.838Z,11.23
2022-12-05T16:07:11.942Z,20.30
2022-12-05T16:09:45.144Z,16.88
2022-12-05T16:12:23.346Z,34.40
2022-12-05T16:14:59.882Z,19.40
2022-12-05T16:17:30.928Z,29.38
2022-12-05T16:20:35.178Z,35.05
2022-12-05T16:23:26.667Z,39.22
2022-12-05T16:26:12.930Z,26.88
2022-12-05T16:28:40.637Z,14.80
2022-12-05T16:31:13.237Z,18.08
2022-12-05T16:33:43.598Z,18.08
2022-12-05T16:36:22.321Z,14.75
2022-12-05T16:38:49.985Z,12.95
2022-12-05T16:41:28.322Z,11.10
2022-12-05T16:43:57.404Z,12.43
2022-12-05T16:46:38.698Z,11.88
2022-12-05T16:49:25.451Z,10.27
2022-12-05T16:52:00.573Z,10.68
2022-12-05T16:54:40.438Z,16.38
2022-12-05T16:57:18.075Z,13.45
2022-12-05T16:59:49.410Z,12.50
2022-12-05T17:03:18.486Z,10.68
2022-12-05T17:06:32.221Z,11.63
2022-12-05T17:09:10.181Z,12.15
2022-12-05T17:11:52.734Z,10.10
2022-12-05T17:14:23.613Z,8.05
2022-12-05T17:16:51.139Z,13.55
2022-12-05T17:19:18.974Z,11.85
2022-12-05T17:21:46.678Z,10.38
2022-12-05T17:24:18.913Z,11.05
2022-12-05T17:26:48.889Z,14.70
2022-12-05T17:29:20.122Z,12.23
2022-12-05T17:31:47.729Z,12.13
2022-12-05T17:34:20.060Z,13.13
2022-12-05T17:36:47.597Z,13.13
2022-12-05T17:39:14.996Z,14.85
2022-12-05T17:41:42.446Z,17.75
2022-12-05T17:44:14.421Z,13.95
2022-12-05T17:46:43.180Z,15.50
2022-12-05T17:49:18.651Z,11.18
2022-12-05T17:52:20.093Z,11.25
2022-12-05T17:54:43.125Z,13.13
2022-12-05T17:57:10.820Z,21.73
2022-12-05T18:02:25.984Z,20.83
2022-12-05T18:04:53.624Z,21.75
2022-12-05T18:07:21.063Z,33.53
2022-12-05T18:09:49.600Z,25.58
2022-12-05T18:12:22.762Z,25.42
2022-12-05T18:14:50.962Z,20.35
2022-12-05T18:19:46.102Z,20.08
2022-12-05T18:22:15.828Z,21.63
2022-12-05T18:24:46.240Z,22.05
2022-12-05T18:27:13.761Z,18.05
2022-12-05T18:29:41.296Z,15.65
2022-12-05T18:32:08.949Z,18.88
2022-12-05T18:34:36.609Z,18.17
2022-12-05T18:37:04.125Z,17.65
2022-12-05T18:39:33.872Z,16.83
2022-12-05T18:42:01.612Z,23.33
2022-12-05T18:44:30.665Z,17.80
2022-12-05T18:47:00.907Z,14.85
2022-12-05T18:49:28.409Z,19.85
2022-12-05T18:51:55.992Z,13.10
2022-12-05T18:54:23.656Z,21.65
2022-12-05T18:56:52.779Z,16.38
2022-12-05T18:59:22.257Z,21.98
2022-12-05T19:01:50.687Z,17.42
2022-12-05T19:04:21.417Z,18.23
2022-12-05T19:06:54.450Z,11.52
2022-12-05T19:09:25.351Z,13.63
2022-12-05T19:11:55.055Z,13.13
2022-12-05T19:14:25.920Z,12.57
2022-12-05T19:16:59.879Z,16.38
2022-12-05T19:19:28.649Z,15.85
2022-12-05T19:24:26.728Z,17.13
2022-12-05T19:26:54.251Z,13.05
2022-12-05T19:29:21.785Z,18.90
2022-12-05T19:31:49.700Z,16.80
2022-12-05T19:34:17.354Z,14.38
2022-12-05T19:36:46.336Z,13.65
2022-12-05T19:39:23.568Z,12.27
2022-12-05T19:41:51.719Z,17.48
2022-12-05T19:44:19.453Z,12.95
2022-12-05T19:46:48.882Z,15.95
2022-12-05T19:49:23.663Z,20.95
2022-12-05T19:51:52.552Z,16.85
2022-12-05T19:54:22.012Z,15.48
2022-12-05T19:56:51.462Z,12.18
2022-12-05T19:59:22.481Z,14.52
2022-12-05T20:01:50.113Z,14.23
2022-12-05T20:04:17.771Z,10.25
2022-12-05T20:06:49.401Z,15.77
2022-12-05T20:09:20.074Z,12.68
2022-12-05T20:11:54.620Z,11.23
2022-12-05T20:14:24.555Z,15.90
2022-12-05T20:16:52.730Z,18.65
2022-12-05T20:19:20.775Z,13.80
2022-12-05T20:21:50.645Z,14.93
2022-12-05T20:24:18.096Z,15.43
2022-12-05T20:26:47.999Z,13.52
2022-12-05T20:29:15.699Z,13.13
2022-12-05T20:31:43.937Z,19.70
2022-12-05T20:36:40.977Z,15.18
2022-12-05T20:39:12.920Z,18.02
2022-12-05T20:41:40.548Z,29.15
2022-12-05T20:44:08.545Z,26.00
2022-12-05T20:49:04.628Z,14.45
2022-12-05T20:51:34.554Z,18.60
2022-12-05T20:54:03.713Z,18.20
2022-12-05T20:56:32.605Z,14.48
2022-12-05T20:59:02.550Z,21.35
2022-12-05T21:01:31.831Z,19.45
2022-12-05T21:04:00.211Z,16.58
2022-12-05T21:06:33.709Z,27.90
2022-12-05T21:09:02.797Z,18.73
2022-12-05T21:11:30.630Z,30.50
2022-12-05T21:14:00.311Z,17.33
2022-12-05T21:16:28.257Z,15.82
2022-12-05T21:18:56.336Z,18.02
2022-12-05T21:21:26.202Z,16.27
2022-12-05T21:23:56.920Z,20.08
2022-12-05T21:26:27.230Z,19.52
2022-12-05T21:28:55.581Z,17.52
2022-12-05T21:31:28.764Z,18.50
2022-12-05T21:34:04.136Z,16.10
2022-12-05T21:36:33.925Z,20.95
2022-12-05T21:39:01.454Z,20.50
2022-12-05T21:41:28.968Z,11.32
2022-12-05T21:43:56.484Z,17.00
2022-12-05T21:46:25.439Z,15.65
2022-12-05T21:48:53.558Z,17.50
2022-12-05T21:51:21.778Z,21.90
2022-12-05T21:56:19.313Z,14.38
2022-12-05T21:58:47.472Z,12.10
2022-12-05T22:01:24.105Z,17.10
2022-12-05T22:03:59.193Z,15.15
2022-12-05T22:06:27.376Z,17.27
2022-12-05T22:11:24.661Z,18.00
2022-12-05T22:16:20.445Z,18.58
2022-12-05T22:21:21.162Z,11.18
2022-12-05T22:23:49.664Z,14.20
2022-12-05T22:26:21.482Z,14.90
2022-12-05T22:28:53.760Z,13.63
2022-12-05T22:31:22.734Z,13.65
2022-12-05T22:33:50.902Z,17.38
2022-12-05T22:38:47.991Z,18.55
2022-12-05T22:41:23.869Z,15.27
2022-12-05T22:43:57.671Z,17.50
2022-12-05T22:46:27.215Z,20.27
2022-12-05T22:48:55.033Z,23.25
2022-12-05T22:51:23.470Z,21.50
2022-12-05T22:53:58.494Z,19.17
2022-12-05T22:56:28.309Z,12.38
2022-12-05T22:58:57.606Z,15.65
2022-12-05T23:01:29.527Z,16.98
2022-12-05T23:04:00.304Z,17.45
2022-12-05T23:06:28.986Z,15.55
2022-12-05T23:08:56.824Z,14.63
2022-12-05T23:11:25.381Z,17.00
2022-12-05T23:14:01.341Z,17.58
2022-12-05T23:16:32.071Z,17.90
2022-12-05T23:19:02.596Z,15.40
2022-12-05T23:21:35.827Z,15.88
2022-12-05T23:24:09.248Z,17.23
2022-12-05T23:26:42.708Z,19.40
2022-12-05T23:29:12.403Z,13.93
2022-12-05T23:31:41.109Z,15.05
2022-12-05T23:34:08.706Z,14.93
2022-12-05T23:39:05.656Z,20.63
2022-12-05T23:41:33.144Z,14.18
2022-12-05T23:44:00.737Z,17.10
2022-12-05T23:46:28.671Z,16.45
2022-12-05T23:48:56.400Z,11.20
2022-12-05T23:51:27.307Z,16.58
2022-12-05T23:54:00.079Z,16.38
2022-12-05T23:56:31.140Z,13.75
2022-12-05T23:58:58.682Z,12.68
